createdAt,value
2018-05-13T00:03:03.846Z,73.60
2018-05-13T00:06:56.864Z,73.60
2018-05-13T00:10:51.844Z,72.70
2018-05-13T00:14:47.725Z,72.70
2018-05-13T00:18:41.767Z,72.60
2018-05-13T00:22:35.744Z,72.50
2018-05-13T00:26:28.909Z,72.50
2018-05-13T00:30:22.123Z,73.00
2018-05-13T00:34:15.394Z,73.50
2018-05-13T00:38:08.668Z,73.70
2018-05-13T00:42:01.863Z,73.00
2018-05-13T00:45:55.184Z,73.30
2018-05-13T00:49:48.385Z,73.70
2018-05-13T00:53:42.534Z,74.40
2018-05-13T00:57:35.758Z,74.40
2018-05-13T01:01:29.090Z,74.40
2018-05-13T01:05:22.061Z,74.40
2018-05-13T01:09:15.269Z,73.90
2018-05-13T01:13:08.518Z,74.10
2018-05-13T01:17:01.727Z,73.90
2018-05-13T01:20:56.256Z,74.10
2018-05-13T01:24:50.342Z,74.10
2018-05-13T01:28:43.538Z,73.80
2018-05-13T01:32:37.623Z,74.10
2018-05-13T01:36:30.830Z,74.30
2018-05-13T01:40:25.221Z,74.20
2018-05-13T01:44:18.450Z,73.80
2018-05-13T01:48:11.513Z,74.30
2018-05-13T01:52:04.743Z,73.80
2018-05-13T01:55:57.951Z,74.40
2018-05-13T01:59:51.458Z,74.90
2018-05-13T02:03:44.701Z,75.10
2018-05-13T02:07:38.644Z,75.10
2018-05-13T02:11:31.881Z,75.10
2018-05-13T02:15:26.054Z,75.00
2018-05-13T02:19:19.959Z,76.00
2018-05-13T02:23:13.191Z,76.00
2018-05-13T02:27:07.177Z,76.50
2018-05-13T02:31:01.485Z,75.80
2018-05-13T02:34:54.708Z,75.80
2018-05-13T02:38:47.827Z,75.40
2018-05-13T02:42:41.059Z,76.10
2018-05-13T02:46:34.331Z,77.10
2018-05-13T02:50:27.604Z,77.70
2018-05-13T02:54:21.528Z,78.50
2018-05-13T02:58:14.760Z,78.60
2018-05-13T03:02:07.979Z,79.80
2018-05-13T03:06:00.958Z,79.40
2018-05-13T03:09:54.117Z,79.60
2018-05-13T03:13:47.246Z,79.30
2018-05-13T03:17:40.468Z,79.30
2018-05-13T03:21:33.593Z,79.40
2018-05-13T03:25:26.837Z,79.80
2018-05-13T03:29:21.801Z,80.70
2018-05-13T03:33:14.993Z,80.70
2018-05-13T03:37:08.220Z,80.70
2018-05-13T03:41:02.585Z,81.30
2018-05-13T03:44:55.796Z,81.20
2018-05-13T03:48:48.885Z,82.70
2018-05-13T03:52:42.679Z,82.40
2018-05-13T03:56:55.936Z,82.50
2018-05-13T04:00:49.491Z,82.00
2018-05-13T04:04:42.633Z,81.90
2018-05-13T04:08:48.498Z,81.70
2018-05-13T04:12:53.417Z,81.70
2018-05-13T04:16:46.902Z,82.00
2018-05-13T04:20:40.921Z,81.80
2018-05-13T04:24:34.332Z,81.70
2018-05-13T04:28:27.768Z,81.60
2018-05-13T04:32:21.027Z,81.60
2018-05-13T04:36:14.203Z,81.40
2018-05-13T04:40:07.467Z,81.30
2018-05-13T04:44:00.629Z,81.00
2018-05-13T04:47:53.838Z,81.50
2018-05-13T04:51:47.066Z,80.80
2018-05-13T04:55:40.292Z,80.50
2018-05-13T04:59:34.588Z,80.30
2018-05-13T05:03:28.612Z,80.10
2018-05-13T05:07:21.745Z,80.10
2018-05-13T05:11:14.867Z,79.70
2018-05-13T05:15:08.021Z,79.70
2018-05-13T05:19:01.277Z,79.30
2018-05-13T05:22:54.467Z,78.00
2018-05-13T05:26:47.568Z,77.60
2018-05-13T05:30:40.773Z,76.50
2018-05-13T05:34:33.969Z,75.00
2018-05-13T05:38:27.295Z,73.00
2018-05-13T05:42:24.442Z,71.00
2018-05-13T05:46:17.638Z,70.00
2018-05-13T05:50:10.809Z,69.80
2018-05-13T05:54:03.972Z,69.50
2018-05-13T05:57:58.198Z,69.50
2018-05-13T06:01:52.167Z,70.30
2018-05-13T06:05:45.253Z,70.30
2018-05-13T06:09:39.063Z,71.10
2018-05-13T06:13:32.326Z,70.90
2018-05-13T06:17:25.532Z,71.30
2018-05-13T06:21:18.811Z,71.10
2018-05-13T06:25:12.219Z,71.00
2018-05-13T06:29:06.134Z,70.80
2018-05-13T06:32:59.565Z,70.80
2018-05-13T06:36:52.823Z,70.40
2018-05-13T06:40:46.028Z,69.70
2018-05-13T06:44:39.262Z,70.50
2018-05-13T06:48:32.495Z,71.70
2018-05-13T06:52:27.312Z,73.10
2018-05-13T06:56:20.817Z,73.00
2018-05-13T07:00:14.590Z,73.80
2018-05-13T07:04:08.016Z,74.50
2018-05-13T07:08:01.268Z,75.20
2018-05-13T07:11:55.301Z,74.80
2018-05-13T07:15:48.604Z,74.30
2018-05-13T07:19:42.829Z,74.20
2018-05-13T07:23:36.083Z,74.20
2018-05-13T07:27:29.339Z,74.60
2018-05-13T07:31:23.217Z,73.20
2018-05-13T07:35:16.811Z,72.90
2018-05-13T07:39:10.087Z,71.50
2018-05-13T07:43:03.383Z,71.90
2018-05-13T07:46:56.781Z,72.60
2018-05-13T07:50:52.049Z,72.20
2018-05-13T07:54:46.208Z,72.30
2018-05-13T07:58:39.661Z,72.70
2018-05-13T08:02:33.188Z,72.90
2018-05-13T08:06:26.970Z,68.40
2018-05-13T08:10:20.239Z,68.40
2018-05-13T08:14:13.429Z,68.50
2018-05-13T08:18:06.848Z,66.60
2018-05-13T08:22:00.189Z,66.60
2018-05-13T08:25:57.707Z,65.50
2018-05-13T08:29:52.561Z,65.50
2018-05-13T08:33:46.064Z,65.30
2018-05-13T08:37:38.617Z,65.40
2018-05-13T08:41:31.797Z,63.80
2018-05-13T08:45:25.105Z,63.80
2018-05-13T08:49:21.074Z,64.60
2018-05-13T08:53:14.330Z,66.60
2018-05-13T08:57:07.656Z,68.80
2018-05-13T09:01:00.901Z,70.60
2018-05-13T09:04:56.128Z,73.70
2018-05-13T09:08:49.345Z,75.10
2018-05-13T09:12:42.695Z,76.20
2018-05-13T09:16:36.343Z,76.80
2018-05-13T09:20:30.471Z,77.20
2018-05-13T09:24:23.644Z,77.20
2018-05-13T09:28:19.762Z,75.80
2018-05-13T09:32:13.117Z,74.70
2018-05-13T09:36:06.381Z,74.50
2018-05-13T09:40:11.877Z,74.70
2018-05-13T09:44:05.851Z,73.30
2018-05-13T09:47:59.237Z,73.20
2018-05-13T09:51:52.467Z,73.00
2018-05-13T09:55:45.809Z,71.90
2018-05-13T09:59:39.337Z,73.20
2018-05-13T10:03:32.966Z,74.00
2018-05-13T10:07:26.003Z,74.50
2018-05-13T10:11:19.395Z,75.20
2018-05-13T10:15:13.394Z,77.60
2018-05-13T10:19:06.607Z,79.60
2018-05-13T10:23:05.366Z,80.70
2018-05-13T10:26:59.923Z,81.40
2018-05-13T10:30:54.147Z,82.40
2018-05-13T10:34:47.455Z,82.10
2018-05-13T10:38:41.342Z,81.70
2018-05-13T10:42:34.684Z,83.70
2018-05-13T10:46:28.632Z,83.80
2018-05-13T10:50:22.943Z,83.90
2018-05-13T10:54:17.069Z,85.30
2018-05-13T10:58:10.432Z,86.50
2018-05-13T11:02:04.060Z,86.40
2018-05-13T11:05:57.495Z,85.90
2018-05-13T11:09:50.859Z,86.90
2018-05-13T11:13:44.137Z,88.10
2018-05-13T11:17:37.669Z,89.00
2018-05-13T11:21:30.917Z,89.60
2018-05-13T11:25:24.203Z,90.10
2018-05-13T11:29:19.786Z,90.70
2018-05-13T11:33:14.058Z,92.90
2018-05-13T11:37:07.242Z,92.90
2018-05-13T11:41:01.671Z,92.70
2018-05-13T11:44:55.038Z,93.60
2018-05-13T11:48:48.317Z,94.10
2018-05-13T11:52:42.051Z,95.20
2018-05-13T12:00:38.543Z,95.90
2018-05-13T12:04:31.940Z,95.90
2018-05-13T12:08:25.120Z,95.80
2018-05-13T12:12:18.777Z,97.00
2018-05-13T12:16:12.128Z,96.30
2018-05-13T12:20:05.407Z,97.40
2018-05-13T12:23:58.825Z,96.70
2018-05-13T12:27:53.870Z,97.30
2018-05-13T12:31:47.119Z,97.20
2018-05-13T12:35:41.101Z,99.90
2018-05-13T12:39:35.137Z,99.90
2018-05-13T12:43:28.392Z,99.90
2018-05-13T12:47:22.317Z,99.90
2018-05-13T12:51:16.810Z,99.90
2018-05-13T12:55:10.397Z,99.90
2018-05-13T12:59:04.154Z,99.90
2018-05-13T13:02:57.471Z,99.90
2018-05-13T13:06:51.489Z,99.90
2018-05-13T13:10:45.467Z,99.90
2018-05-13T13:14:39.586Z,99.90
2018-05-13T13:18:32.946Z,99.90
2018-05-13T13:22:26.519Z,99.90
2018-05-13T13:26:20.044Z,99.90
2018-05-13T13:30:14.864Z,99.90
2018-05-13T13:34:08.607Z,99.90
2018-05-13T13:38:02.435Z,99.90
2018-05-13T13:41:56.532Z,99.90
2018-05-13T13:45:49.917Z,99.90
2018-05-13T13:49:46.685Z,99.90
2018-05-13T13:53:40.488Z,99.90
2018-05-13T13:57:33.730Z,99.90
2018-05-13T14:01:28.719Z,99.90
2018-05-13T14:05:22.013Z,99.90
2018-05-13T14:09:16.406Z,99.90
2018-05-13T14:13:10.491Z,99.90
2018-05-13T14:17:03.732Z,99.90
2018-05-13T14:20:57.082Z,99.90
2018-05-13T14:24:51.152Z,99.90
2018-05-13T14:28:44.407Z,99.90
2018-05-13T14:32:38.498Z,99.90
2018-05-13T14:36:31.937Z,99.90
2018-05-13T14:40:25.138Z,99.90
2018-05-13T14:44:18.640Z,99.70
2018-05-13T14:48:12.655Z,98.30
2018-05-13T14:52:07.363Z,98.00
2018-05-13T14:56:01.585Z,97.90
2018-05-13T14:59:55.090Z,98.50
2018-05-13T15:03:49.069Z,98.60
2018-05-13T15:07:43.061Z,98.10
2018-05-13T15:11:37.050Z,98.90
2018-05-13T15:15:30.888Z,98.90
2018-05-13T15:19:26.013Z,99.00
2018-05-13T15:23:21.055Z,98.20
2018-05-13T15:27:14.316Z,98.10
2018-05-13T15:31:07.486Z,98.40
2018-05-13T15:35:01.487Z,98.70
2018-05-13T15:38:54.757Z,98.60
2018-05-13T15:42:48.082Z,98.60
2018-05-13T15:46:42.033Z,98.60
2018-05-13T15:50:35.494Z,98.10
2018-05-13T15:54:29.456Z,98.10
2018-05-13T15:58:22.634Z,98.30
2018-05-13T16:02:22.878Z,98.20
2018-05-13T16:06:16.716Z,98.30
2018-05-13T16:10:11.152Z,98.40
2018-05-13T16:14:05.381Z,98.20
2018-05-13T16:17:58.714Z,98.40
2018-05-13T16:21:54.034Z,98.20
2018-05-13T16:25:47.317Z,98.00
2018-05-13T16:29:41.389Z,98.10
2018-05-13T16:33:35.322Z,97.80
2018-05-13T16:37:28.512Z,97.70
2018-05-13T16:41:21.797Z,97.50
2018-05-13T16:45:24.411Z,97.50
2018-05-13T16:49:19.221Z,97.20
2018-05-13T16:53:15.658Z,97.40
2018-05-13T16:57:09.006Z,97.40
2018-05-13T17:01:03.966Z,97.10
2018-05-13T17:04:58.010Z,97.60
2018-05-13T17:08:51.787Z,97.50
2018-05-13T17:12:52.101Z,97.80
2018-05-13T17:16:45.673Z,97.80
2018-05-13T17:20:39.067Z,97.80
2018-05-13T17:24:33.140Z,97.70
2018-05-13T17:28:27.536Z,97.70
2018-05-13T17:32:21.870Z,97.80
2018-05-13T17:36:15.854Z,97.90
2018-05-13T17:40:09.874Z,98.00
2018-05-13T17:44:03.223Z,98.00
2018-05-13T17:47:56.534Z,98.10
2018-05-13T17:51:51.406Z,98.10
2018-05-13T17:55:51.818Z,97.80
2018-05-13T17:59:47.742Z,97.80
2018-05-13T18:03:41.942Z,97.70
2018-05-13T18:07:46.395Z,98.10
2018-05-13T18:11:40.876Z,98.10
2018-05-13T18:15:38.766Z,98.30
2018-05-13T18:23:40.037Z,98.80
2018-05-13T18:27:35.784Z,98.40
2018-05-13T18:31:32.166Z,98.70
2018-05-13T18:39:40.563Z,98.70
2018-05-13T18:43:34.749Z,98.70
2018-05-13T18:47:30.859Z,98.60
2018-05-13T18:51:24.494Z,98.60
2018-05-13T18:55:20.152Z,98.80
2018-05-13T18:59:22.830Z,98.90
2018-05-13T19:03:20.726Z,98.80
2018-05-13T19:07:14.037Z,98.80
2018-05-13T19:11:07.265Z,98.70
2018-05-13T19:15:00.556Z,98.60
2018-05-13T19:18:54.756Z,98.50
2018-05-13T19:22:48.626Z,98.40
2018-05-13T19:26:42.610Z,98.30
2018-05-13T19:30:35.815Z,98.20
2018-05-13T19:34:29.099Z,98.40
2018-05-13T19:38:23.020Z,98.30
2018-05-13T19:42:19.337Z,98.30
2018-05-13T19:46:13.023Z,98.30
2018-05-13T19:50:08.734Z,98.40
2018-05-13T19:54:03.033Z,98.40
2018-05-13T19:57:57.200Z,98.30
2018-05-13T20:01:50.650Z,98.20
2018-05-13T20:05:43.855Z,98.10
2018-05-13T20:09:37.915Z,98.10
2018-05-13T20:13:31.775Z,98.10
2018-05-13T20:17:24.937Z,98.10
2018-05-13T20:21:18.233Z,97.90
2018-05-13T20:25:11.453Z,98.00
2018-05-13T20:29:04.733Z,97.80
2018-05-13T20:32:57.884Z,97.80
2018-05-13T20:36:51.241Z,97.70
2018-05-13T20:40:44.405Z,97.90
2018-05-13T20:44:37.583Z,98.00
2018-05-13T20:48:30.700Z,98.20
2018-05-13T20:52:24.660Z,98.20
2018-05-13T20:56:17.899Z,98.20
2018-05-13T21:00:11.240Z,98.50
2018-05-13T21:04:05.292Z,98.90
2018-05-13T21:07:59.715Z,99.10
2018-05-13T21:11:52.984Z,99.40
2018-05-13T21:15:46.299Z,99.40
2018-05-13T21:19:39.480Z,99.90
2018-05-13T21:23:32.637Z,99.90
2018-05-13T21:27:26.035Z,99.90
2018-05-13T21:31:19.459Z,99.90
2018-05-13T21:35:14.059Z,99.90
2018-05-13T21:39:07.357Z,99.90
2018-05-13T21:43:00.974Z,99.90
2018-05-13T21:46:55.594Z,99.60
2018-05-13T21:50:50.163Z,99.90
2018-05-13T21:54:44.238Z,99.90
2018-05-13T21:58:37.430Z,99.90
2018-05-13T22:02:34.457Z,99.90
2018-05-13T22:06:27.973Z,99.90
2018-05-13T22:10:21.248Z,99.90
2018-05-13T22:14:14.522Z,99.90
2018-05-13T22:18:07.689Z,99.90
2018-05-13T22:22:01.656Z,99.90
2018-05-13T22:25:54.800Z,99.90
2018-05-13T22:29:49.911Z,99.90
2018-05-13T22:33:43.632Z,99.90
2018-05-13T22:37:36.972Z,99.90
2018-05-13T22:41:31.869Z,99.90
2018-05-13T22:45:25.130Z,99.90
2018-05-13T22:49:18.447Z,99.90
2018-05-13T22:53:11.909Z,99.90
2018-05-13T22:57:05.113Z,99.90
2018-05-13T23:00:58.473Z,99.90
2018-05-13T23:04:51.706Z,99.90
2018-05-13T23:08:44.837Z,99.90
2018-05-13T23:12:37.999Z,99.90
2018-05-13T23:16:31.144Z,99.90
2018-05-13T23:20:25.165Z,99.90
2018-05-13T23:24:19.527Z,99.90
2018-05-13T23:28:31.100Z,99.90
2018-05-13T23:32:24.204Z,99.90
2018-05-13T23:36:17.396Z,99.90
2018-05-13T23:40:11.144Z,99.90
2018-05-13T23:44:05.022Z,99.90
2018-05-13T23:47:58.899Z,99.90
2018-05-13T23:51:52.280Z,99.90
2018-05-13T23:55:45.558Z,99.90
2018-05-13T23:59:38.825Z,99.90
